sensor_id;sensor_type;location;lat;lon;timestamp;P1;durP1;ratioP1;P2;durP2;ratioP2
38083;SDS011;23894;51.466;7.444;2023-04-07T00:00:49;11.57;;;9.57;;
38083;SDS011;23894;51.466;7.444;2023-04-07T00:02:52;11.63;;;9.95;;
38083;SDS011;23894;51.466;7.444;2023-04-07T00:04:53;11.10;;;9.57;;
38083;SDS011;23894;51.466;7.444;2023-04-07T00:06:56;12.15;;;10.05;;
38083;SDS011;23894;51.466;7.444;2023-04-07T00:08:58;12.00;;;10.23;;
38083;SDS011;23894;51.466;7.444;2023-04-07T00:10:59;11.32;;;9.45;;
38083;SDS011;23894;51.466;7.444;2023-04-07T00:13:00;10.65;;;9.35;;
38083;SDS011;23894;51.466;7.444;2023-04-07T00:15:01;11.63;;;9.65;;
38083;SDS011;23894;51.466;7.444;2023-04-07T00:17:02;11.13;;;9.82;;
38083;SDS011;23894;51.466;7.444;2023-04-07T00:19:05;14.00;;;10.75;;
38083;SDS011;23894;51.466;7.444;2023-04-07T00:21:06;11.32;;;9.75;;
38083;SDS011;23894;51.466;7.444;2023-04-07T00:23:07;12.30;;;9.95;;
38083;SDS011;23894;51.466;7.444;2023-04-07T00:25:08;11.38;;;9.68;;
38083;SDS011;23894;51.466;7.444;2023-04-07T00:27:09;10.65;;;9.38;;
38083;SDS011;23894;51.466;7.444;2023-04-07T00:29:10;10.83;;;9.07;;
38083;SDS011;23894;51.466;7.444;2023-04-07T00:31:11;10.98;;;9.38;;
38083;SDS011;23894;51.466;7.444;2023-04-07T00:33:12;11.38;;;9.27;;
38083;SDS011;23894;51.466;7.444;2023-04-07T00:35:13;10.75;;;9.45;;
38083;SDS011;23894;51.466;7.444;2023-04-07T00:37:14;10.98;;;9.30;;
38083;SDS011;23894;51.466;7.444;2023-04-07T00:39:18;10.73;;;9.30;;
38083;SDS011;23894;51.466;7.444;2023-04-07T00:41:19;11.50;;;9.40;;
38083;SDS011;23894;51.466;7.444;2023-04-07T00:43:20;11.57;;;9.77;;
38083;SDS011;23894;51.466;7.444;2023-04-07T00:45:21;10.98;;;9.55;;
38083;SDS011;23894;51.466;7.444;2023-04-07T00:47:22;12.50;;;9.70;;
38083;SDS011;23894;51.466;7.444;2023-04-07T00:49:23;11.77;;;9.43;;
38083;SDS011;23894;51.466;7.444;2023-04-07T00:51:27;11.10;;;9.40;;
38083;SDS011;23894;51.466;7.444;2023-04-07T00:53:28;11.85;;;10.10;;
38083;SDS011;23894;51.466;7.444;2023-04-07T00:55:30;11.38;;;9.70;;
38083;SDS011;23894;51.466;7.444;2023-04-07T00:57:32;10.98;;;9.63;;
38083;SDS011;23894;51.466;7.444;2023-04-07T00:59:33;12.65;;;10.82;;
38083;SDS011;23894;51.466;7.444;2023-04-07T01:01:39;11.30;;;9.55;;
38083;SDS011;23894;51.466;7.444;2023-04-07T01:05:59;11.98;;;10.43;;
38083;SDS011;23894;51.466;7.444;2023-04-07T01:08:18;11.38;;;9.52;;
38083;SDS011;23894;51.466;7.444;2023-04-07T01:10:25;12.05;;;10.43;;
38083;SDS011;23894;51.466;7.444;2023-04-07T01:14:33;10.85;;;9.57;;
38083;SDS011;23894;51.466;7.444;2023-04-07T01:16:48;13.02;;;10.80;;
38083;SDS011;23894;51.466;7.444;2023-04-07T01:18:51;13.20;;;10.63;;
38083;SDS011;23894;51.466;7.444;2023-04-07T01:20:55;11.73;;;10.05;;
38083;SDS011;23894;51.466;7.444;2023-04-07T01:22:58;12.40;;;10.52;;
38083;SDS011;23894;51.466;7.444;2023-04-07T01:25:09;11.80;;;10.00;;
38083;SDS011;23894;51.466;7.444;2023-04-07T01:27:20;13.35;;;10.73;;
38083;SDS011;23894;51.466;7.444;2023-04-07T01:29:33;11.43;;;10.23;;
38083;SDS011;23894;51.466;7.444;2023-04-07T01:31:35;11.95;;;10.10;;
38083;SDS011;23894;51.466;7.444;2023-04-07T01:33:37;12.13;;;10.25;;
38083;SDS011;23894;51.466;7.444;2023-04-07T01:35:40;12.25;;;9.95;;
38083;SDS011;23894;51.466;7.444;2023-04-07T01:37:42;13.38;;;11.20;;
38083;SDS011;23894;51.466;7.444;2023-04-07T01:39:45;12.95;;;11.15;;
38083;SDS011;23894;51.466;7.444;2023-04-07T01:41:49;13.60;;;11.73;;
38083;SDS011;23894;51.466;7.444;2023-04-07T01:43:52;11.80;;;10.40;;
38083;SDS011;23894;51.466;7.444;2023-04-07T01:45:54;12.50;;;10.75;;
38083;SDS011;23894;51.466;7.444;2023-04-07T01:47:57;13.65;;;11.45;;
38083;SDS011;23894;51.466;7.444;2023-04-07T01:50:00;13.40;;;10.85;;
38083;SDS011;23894;51.466;7.444;2023-04-07T01:52:08;14.15;;;11.35;;
38083;SDS011;23894;51.466;7.444;2023-04-07T01:54:09;13.82;;;11.98;;
38083;SDS011;23894;51.466;7.444;2023-04-07T01:56:10;13.27;;;11.77;;
38083;SDS011;23894;51.466;7.444;2023-04-07T01:58:11;14.55;;;12.05;;
38083;SDS011;23894;51.466;7.444;2023-04-07T02:00:12;14.63;;;12.35;;
38083;SDS011;23894;51.466;7.444;2023-04-07T02:02:14;13.10;;;11.70;;
38083;SDS011;23894;51.466;7.444;2023-04-07T02:04:24;13.82;;;11.85;;
38083;SDS011;23894;51.466;7.444;2023-04-07T02:06:29;14.77;;;12.90;;
38083;SDS011;23894;51.466;7.444;2023-04-07T02:08:32;14.43;;;12.00;;
38083;SDS011;23894;51.466;7.444;2023-04-07T02:10:34;15.07;;;12.57;;
38083;SDS011;23894;51.466;7.444;2023-04-07T02:12:37;14.13;;;12.38;;
38083;SDS011;23894;51.466;7.444;2023-04-07T02:14:39;14.07;;;12.57;;
38083;SDS011;23894;51.466;7.444;2023-04-07T02:16:40;15.23;;;12.30;;
38083;SDS011;23894;51.466;7.444;2023-04-07T02:18:42;15.70;;;13.02;;
38083;SDS011;23894;51.466;7.444;2023-04-07T02:20:45;14.30;;;12.43;;
38083;SDS011;23894;51.466;7.444;2023-04-07T02:22:49;14.27;;;12.35;;
38083;SDS011;23894;51.466;7.444;2023-04-07T02:24:51;14.20;;;12.70;;
38083;SDS011;23894;51.466;7.444;2023-04-07T02:26:52;14.10;;;12.60;;
38083;SDS011;23894;51.466;7.444;2023-04-07T02:28:58;15.30;;;12.90;;
38083;SDS011;23894;51.466;7.444;2023-04-07T02:30:59;14.93;;;13.18;;
38083;SDS011;23894;51.466;7.444;2023-04-07T02:33:00;15.32;;;13.13;;
38083;SDS011;23894;51.466;7.444;2023-04-07T02:35:01;15.67;;;13.67;;
38083;SDS011;23894;51.466;7.444;2023-04-07T02:37:02;15.35;;;13.02;;
38083;SDS011;23894;51.466;7.444;2023-04-07T02:39:03;15.45;;;13.15;;
38083;SDS011;23894;51.466;7.444;2023-04-07T02:41:04;14.57;;;12.88;;
38083;SDS011;23894;51.466;7.444;2023-04-07T02:43:07;14.93;;;12.90;;
38083;SDS011;23894;51.466;7.444;2023-04-07T02:45:08;15.98;;;14.05;;
38083;SDS011;23894;51.466;7.444;2023-04-07T02:47:09;14.77;;;13.18;;
38083;SDS011;23894;51.466;7.444;2023-04-07T02:49:10;15.30;;;12.95;;
38083;SDS011;23894;51.466;7.444;2023-04-07T02:51:11;14.30;;;12.80;;
38083;SDS011;23894;51.466;7.444;2023-04-07T02:53:12;15.57;;;13.30;;
38083;SDS011;23894;51.466;7.444;2023-04-07T02:55:14;15.93;;;13.40;;
38083;SDS011;23894;51.466;7.444;2023-04-07T02:57:15;14.30;;;12.80;;
38083;SDS011;23894;51.466;7.444;2023-04-07T02:59:17;15.43;;;13.10;;
38083;SDS011;23894;51.466;7.444;2023-04-07T03:01:21;14.57;;;12.88;;
38083;SDS011;23894;51.466;7.444;2023-04-07T03:03:23;13.85;;;12.32;;
38083;SDS011;23894;51.466;7.444;2023-04-07T03:05:26;15.02;;;13.13;;
38083;SDS011;23894;51.466;7.444;2023-04-07T03:07:27;14.93;;;13.32;;
38083;SDS011;23894;51.466;7.444;2023-04-07T03:09:30;16.73;;;13.15;;
38083;SDS011;23894;51.466;7.444;2023-04-07T03:11:32;15.68;;;13.60;;
38083;SDS011;23894;51.466;7.444;2023-04-07T03:13:33;15.05;;;13.45;;
38083;SDS011;23894;51.466;7.444;2023-04-07T03:15:34;14.93;;;13.27;;
38083;SDS011;23894;51.466;7.444;2023-04-07T03:17:36;15.88;;;14.05;;
38083;SDS011;23894;51.466;7.444;2023-04-07T03:19:40;14.88;;;13.27;;
38083;SDS011;23894;51.466;7.444;2023-04-07T03:21:42;14.90;;;12.68;;
38083;SDS011;23894;51.466;7.444;2023-04-07T03:23:43;14.20;;;12.70;;
38083;SDS011;23894;51.466;7.444;2023-04-07T03:25:44;14.32;;;12.50;;
38083;SDS011;23894;51.466;7.444;2023-04-07T03:27:45;14.20;;;12.70;;
38083;SDS011;23894;51.466;7.444;2023-04-07T03:29:48;13.60;;;12.20;;
38083;SDS011;23894;51.466;7.444;2023-04-07T03:31:50;14.20;;;12.70;;
38083;SDS011;23894;51.466;7.444;2023-04-07T03:33:52;13.63;;;12.07;;
38083;SDS011;23894;51.466;7.444;2023-04-07T03:35:53;14.00;;;12.50;;
38083;SDS011;23894;51.466;7.444;2023-04-07T03:37:54;13.73;;;12.30;;
38083;SDS011;23894;51.466;7.444;2023-04-07T03:39:55;15.73;;;12.30;;
38083;SDS011;23894;51.466;7.444;2023-04-07T03:41:57;15.80;;;12.93;;
38083;SDS011;23894;51.466;7.444;2023-04-07T03:44:00;12.82;;;11.43;;
38083;SDS011;23894;51.466;7.444;2023-04-07T03:46:01;15.43;;;12.88;;
38083;SDS011;23894;51.466;7.444;2023-04-07T03:48:02;14.77;;;13.18;;
38083;SDS011;23894;51.466;7.444;2023-04-07T03:50:03;14.07;;;12.57;;
38083;SDS011;23894;51.466;7.444;2023-04-07T03:52:04;13.70;;;12.20;;
38083;SDS011;23894;51.466;7.444;2023-04-07T03:54:05;13.65;;;12.20;;
38083;SDS011;23894;51.466;7.444;2023-04-07T03:56:06;14.50;;;12.25;;
38083;SDS011;23894;51.466;7.444;2023-04-07T03:58:09;14.60;;;12.40;;
38083;SDS011;23894;51.466;7.444;2023-04-07T04:00:10;14.10;;;12.57;;
38083;SDS011;23894;51.466;7.444;2023-04-07T04:02:11;14.40;;;12.52;;
38083;SDS011;23894;51.466;7.444;2023-04-07T04:04:13;13.88;;;12.15;;
38083;SDS011;23894;51.466;7.444;2023-04-07T04:06:14;14.23;;;12.73;;
38083;SDS011;23894;51.466;7.444;2023-04-07T04:08:16;13.43;;;12.02;;
38083;SDS011;23894;51.466;7.444;2023-04-07T04:10:17;13.98;;;12.23;;
38083;SDS011;23894;51.466;7.444;2023-04-07T04:12:20;14.52;;;12.98;;
38083;SDS011;23894;51.466;7.444;2023-04-07T04:14:21;14.52;;;12.93;;
38083;SDS011;23894;51.466;7.444;2023-04-07T04:16:22;15.95;;;13.63;;
38083;SDS011;23894;51.466;7.444;2023-04-07T04:18:24;14.07;;;12.27;;
38083;SDS011;23894;51.466;7.444;2023-04-07T04:20:26;14.38;;;12.27;;
38083;SDS011;23894;51.466;7.444;2023-04-07T04:22:27;13.65;;;12.15;;
38083;SDS011;23894;51.466;7.444;2023-04-07T04:24:28;14.15;;;12.68;;
38083;SDS011;23894;51.466;7.444;2023-04-07T04:26:30;14.40;;;12.23;;
38083;SDS011;23894;51.466;7.444;2023-04-07T04:28:31;14.10;;;12.57;;
38083;SDS011;23894;51.466;7.444;2023-04-07T04:30:32;13.75;;;12.30;;
38083;SDS011;23894;51.466;7.444;2023-04-07T04:32:33;14.93;;;13.32;;
38083;SDS011;23894;51.466;7.444;2023-04-07T04:34:34;15.20;;;12.90;;
38083;SDS011;23894;51.466;7.444;2023-04-07T04:36:35;15.27;;;13.15;;
38083;SDS011;23894;51.466;7.444;2023-04-07T04:38:36;14.82;;;13.30;;
38083;SDS011;23894;51.466;7.444;2023-04-07T04:40:38;16.20;;;13.30;;
38083;SDS011;23894;51.466;7.444;2023-04-07T04:42:39;14.82;;;12.95;;
38083;SDS011;23894;51.466;7.444;2023-04-07T04:44:40;14.40;;;12.90;;
38083;SDS011;23894;51.466;7.444;2023-04-07T04:46:41;14.70;;;13.03;;
38083;SDS011;23894;51.466;7.444;2023-04-07T04:48:42;19.15;;;14.82;;
38083;SDS011;23894;51.466;7.444;2023-04-07T04:50:43;15.15;;;13.50;;
38083;SDS011;23894;51.466;7.444;2023-04-07T04:52:44;16.42;;;14.20;;
38083;SDS011;23894;51.466;7.444;2023-04-07T04:54:45;14.73;;;13.23;;
38083;SDS011;23894;51.466;7.444;2023-04-07T04:56:50;15.73;;;13.90;;
38083;SDS011;23894;51.466;7.444;2023-04-07T04:58:52;17.65;;;15.05;;
38083;SDS011;23894;51.466;7.444;2023-04-07T05:00:54;18.80;;;15.15;;
38083;SDS011;23894;51.466;7.444;2023-04-07T05:02:59;16.15;;;14.15;;
38083;SDS011;23894;51.466;7.444;2023-04-07T05:05:02;17.67;;;14.40;;
38083;SDS011;23894;51.466;7.444;2023-04-07T05:07:03;17.40;;;15.13;;
38083;SDS011;23894;51.466;7.444;2023-04-07T05:09:04;19.45;;;15.57;;
38083;SDS011;23894;51.466;7.444;2023-04-07T05:11:06;19.30;;;16.05;;
38083;SDS011;23894;51.466;7.444;2023-04-07T05:13:08;21.15;;;16.70;;
38083;SDS011;23894;51.466;7.444;2023-04-07T05:15:11;19.33;;;17.17;;
38083;SDS011;23894;51.466;7.444;2023-04-07T05:17:14;18.77;;;16.45;;
38083;SDS011;23894;51.466;7.444;2023-04-07T05:19:15;17.63;;;15.13;;
38083;SDS011;23894;51.466;7.444;2023-04-07T05:21:16;24.08;;;19.08;;
38083;SDS011;23894;51.466;7.444;2023-04-07T05:23:19;23.23;;;20.10;;
38083;SDS011;23894;51.466;7.444;2023-04-07T05:25:20;27.25;;;21.08;;
38083;SDS011;23894;51.466;7.444;2023-04-07T05:27:21;23.60;;;18.95;;
38083;SDS011;23894;51.466;7.444;2023-04-07T05:29:22;26.58;;;20.60;;
38083;SDS011;23894;51.466;7.444;2023-04-07T05:31:23;24.95;;;20.42;;
38083;SDS011;23894;51.466;7.444;2023-04-07T05:33:25;23.40;;;19.95;;
38083;SDS011;23894;51.466;7.444;2023-04-07T05:35:26;25.25;;;21.17;;
38083;SDS011;23894;51.466;7.444;2023-04-07T05:37:27;26.10;;;21.35;;
38083;SDS011;23894;51.466;7.444;2023-04-07T05:39:28;24.40;;;20.38;;
38083;SDS011;23894;51.466;7.444;2023-04-07T05:41:29;26.25;;;21.25;;
38083;SDS011;23894;51.466;7.444;2023-04-07T05:43:31;28.45;;;21.23;;
38083;SDS011;23894;51.466;7.444;2023-04-07T05:45:32;26.67;;;21.48;;
38083;SDS011;23894;51.466;7.444;2023-04-07T05:47:34;29.30;;;22.30;;
38083;SDS011;23894;51.466;7.444;2023-04-07T05:49:35;30.00;;;21.73;;
38083;SDS011;23894;51.466;7.444;2023-04-07T05:51:36;26.83;;;21.87;;
38083;SDS011;23894;51.466;7.444;2023-04-07T05:53:37;28.43;;;21.20;;
38083;SDS011;23894;51.466;7.444;2023-04-07T05:55:38;24.70;;;19.83;;
38083;SDS011;23894;51.466;7.444;2023-04-07T05:57:41;26.05;;;20.38;;
38083;SDS011;23894;51.466;7.444;2023-04-07T05:59:42;24.42;;;19.40;;
38083;SDS011;23894;51.466;7.444;2023-04-07T06:01:45;24.13;;;19.73;;
38083;SDS011;23894;51.466;7.444;2023-04-07T06:03:46;24.35;;;19.90;;
38083;SDS011;23894;51.466;7.444;2023-04-07T06:05:49;24.52;;;19.85;;
38083;SDS011;23894;51.466;7.444;2023-04-07T06:07:51;23.85;;;19.73;;
38083;SDS011;23894;51.466;7.444;2023-04-07T06:09:53;25.08;;;19.42;;
38083;SDS011;23894;51.466;7.444;2023-04-07T06:11:55;24.05;;;18.05;;
38083;SDS011;23894;51.466;7.444;2023-04-07T06:13:56;24.52;;;18.95;;
38083;SDS011;23894;51.466;7.444;2023-04-07T06:15:57;22.95;;;18.05;;
38083;SDS011;23894;51.466;7.444;2023-04-07T06:17:58;21.40;;;17.40;;
38083;SDS011;23894;51.466;7.444;2023-04-07T06:20:01;20.80;;;16.95;;
38083;SDS011;23894;51.466;7.444;2023-04-07T06:22:02;21.05;;;17.63;;
38083;SDS011;23894;51.466;7.444;2023-04-07T06:24:05;19.58;;;15.90;;
38083;SDS011;23894;51.466;7.444;2023-04-07T06:26:09;19.63;;;16.02;;
38083;SDS011;23894;51.466;7.444;2023-04-07T06:28:10;17.93;;;15.83;;
38083;SDS011;23894;51.466;7.444;2023-04-07T06:30:12;18.63;;;14.77;;
38083;SDS011;23894;51.466;7.444;2023-04-07T06:32:13;19.25;;;15.75;;
38083;SDS011;23894;51.466;7.444;2023-04-07T06:34:14;19.27;;;14.97;;
38083;SDS011;23894;51.466;7.444;2023-04-07T06:36:15;19.48;;;15.43;;
38083;SDS011;23894;51.466;7.444;2023-04-07T06:38:16;18.42;;;15.13;;
38083;SDS011;23894;51.466;7.444;2023-04-07T06:40:17;17.45;;;15.32;;
38083;SDS011;23894;51.466;7.444;2023-04-07T06:42:18;17.80;;;14.87;;
38083;SDS011;23894;51.466;7.444;2023-04-07T06:44:19;18.83;;;14.95;;
38083;SDS011;23894;51.466;7.444;2023-04-07T06:46:20;18.30;;;15.05;;
38083;SDS011;23894;51.466;7.444;2023-04-07T06:48:22;17.77;;;14.30;;
38083;SDS011;23894;51.466;7.444;2023-04-07T06:50:23;17.40;;;15.00;;
38083;SDS011;23894;51.466;7.444;2023-04-07T06:52:24;17.70;;;14.68;;
38083;SDS011;23894;51.466;7.444;2023-04-07T06:54:25;16.17;;;13.88;;
38083;SDS011;23894;51.466;7.444;2023-04-07T06:56:26;16.43;;;13.87;;
38083;SDS011;23894;51.466;7.444;2023-04-07T06:58:27;16.98;;;13.57;;
38083;SDS011;23894;51.466;7.444;2023-04-07T07:00:28;18.05;;;14.15;;
38083;SDS011;23894;51.466;7.444;2023-04-07T07:02:31;18.15;;;14.50;;
38083;SDS011;23894;51.466;7.444;2023-04-07T07:04:33;17.65;;;14.55;;
38083;SDS011;23894;51.466;7.444;2023-04-07T07:06:34;17.50;;;14.02;;
38083;SDS011;23894;51.466;7.444;2023-04-07T07:08:35;18.15;;;14.00;;
38083;SDS011;23894;51.466;7.444;2023-04-07T07:10:36;19.90;;;14.32;;
38083;SDS011;23894;51.466;7.444;2023-04-07T07:12:37;18.92;;;15.50;;
38083;SDS011;23894;51.466;7.444;2023-04-07T07:14:38;17.52;;;14.52;;
38083;SDS011;23894;51.466;7.444;2023-04-07T07:16:39;17.60;;;14.20;;
38083;SDS011;23894;51.466;7.444;2023-04-07T07:18:41;19.02;;;14.65;;
38083;SDS011;23894;51.466;7.444;2023-04-07T07:20:42;18.65;;;14.60;;
38083;SDS011;23894;51.466;7.444;2023-04-07T07:22:43;18.33;;;14.45;;
38083;SDS011;23894;51.466;7.444;2023-04-07T07:24:44;20.65;;;15.63;;
38083;SDS011;23894;51.466;7.444;2023-04-07T07:26:45;17.55;;;14.10;;
38083;SDS011;23894;51.466;7.444;2023-04-07T07:28:46;17.55;;;13.95;;
38083;SDS011;23894;51.466;7.444;2023-04-07T07:30:47;17.02;;;13.35;;
38083;SDS011;23894;51.466;7.444;2023-04-07T07:32:50;18.10;;;13.73;;
38083;SDS011;23894;51.466;7.444;2023-04-07T07:34:52;16.48;;;12.90;;
38083;SDS011;23894;51.466;7.444;2023-04-07T07:36:55;15.63;;;12.90;;
38083;SDS011;23894;51.466;7.444;2023-04-07T07:38:56;15.07;;;12.35;;
38083;SDS011;23894;51.466;7.444;2023-04-07T07:40:57;16.90;;;12.88;;
38083;SDS011;23894;51.466;7.444;2023-04-07T07:43:00;16.47;;;13.07;;
38083;SDS011;23894;51.466;7.444;2023-04-07T07:45:01;16.23;;;13.67;;
38083;SDS011;23894;51.466;7.444;2023-04-07T07:47:02;16.33;;;14.23;;
38083;SDS011;23894;51.466;7.444;2023-04-07T07:49:03;16.88;;;14.10;;
38083;SDS011;23894;51.466;7.444;2023-04-07T07:51:04;16.67;;;14.25;;
38083;SDS011;23894;51.466;7.444;2023-04-07T07:53:06;15.10;;;12.48;;
38083;SDS011;23894;51.466;7.444;2023-04-07T07:55:07;15.27;;;13.30;;
38083;SDS011;23894;51.466;7.444;2023-04-07T07:57:08;19.95;;;16.65;;
38083;SDS011;23894;51.466;7.444;2023-04-07T07:59:09;21.13;;;17.65;;
38083;SDS011;23894;51.466;7.444;2023-04-07T08:01:10;19.95;;;16.88;;
38083;SDS011;23894;51.466;7.444;2023-04-07T08:03:11;20.02;;;15.52;;
38083;SDS011;23894;51.466;7.444;2023-04-07T08:05:12;17.48;;;14.35;;
38083;SDS011;23894;51.466;7.444;2023-04-07T08:07:13;16.23;;;13.02;;
38083;SDS011;23894;51.466;7.444;2023-04-07T08:09:16;15.68;;;12.70;;
38083;SDS011;23894;51.466;7.444;2023-04-07T08:11:19;14.10;;;12.00;;
38083;SDS011;23894;51.466;7.444;2023-04-07T08:13:20;14.55;;;12.25;;
38083;SDS011;23894;51.466;7.444;2023-04-07T08:15:22;15.50;;;12.30;;
38083;SDS011;23894;51.466;7.444;2023-04-07T08:17:23;14.07;;;11.77;;
38083;SDS011;23894;51.466;7.444;2023-04-07T08:19:24;13.82;;;11.70;;
38083;SDS011;23894;51.466;7.444;2023-04-07T08:21:25;13.05;;;11.25;;
38083;SDS011;23894;51.466;7.444;2023-04-07T08:23:26;13.20;;;11.25;;
38083;SDS011;23894;51.466;7.444;2023-04-07T08:25:27;13.50;;;11.38;;
38083;SDS011;23894;51.466;7.444;2023-04-07T08:27:28;14.52;;;11.82;;
38083;SDS011;23894;51.466;7.444;2023-04-07T08:29:30;16.65;;;13.30;;
38083;SDS011;23894;51.466;7.444;2023-04-07T08:31:31;11.95;;;9.93;;
38083;SDS011;23894;51.466;7.444;2023-04-07T08:33:32;11.60;;;8.82;;
38083;SDS011;23894;51.466;7.444;2023-04-07T08:35:33;11.65;;;9.70;;
38083;SDS011;23894;51.466;7.444;2023-04-07T08:37:36;11.77;;;10.02;;
38083;SDS011;23894;51.466;7.444;2023-04-07T08:39:37;11.23;;;9.95;;
38083;SDS011;23894;51.466;7.444;2023-04-07T08:41:38;12.73;;;10.83;;
38083;SDS011;23894;51.466;7.444;2023-04-07T08:43:40;13.35;;;10.45;;
38083;SDS011;23894;51.466;7.444;2023-04-07T08:45:42;13.87;;;11.57;;
38083;SDS011;23894;51.466;7.444;2023-04-07T08:47:45;15.15;;;12.57;;
38083;SDS011;23894;51.466;7.444;2023-04-07T08:49:49;15.27;;;12.63;;
38083;SDS011;23894;51.466;7.444;2023-04-07T08:51:52;16.60;;;14.57;;
38083;SDS011;23894;51.466;7.444;2023-04-07T08:56:21;14.63;;;12.68;;
38083;SDS011;23894;51.466;7.444;2023-04-07T08:58:22;13.63;;;11.30;;
38083;SDS011;23894;51.466;7.444;2023-04-07T09:00:23;16.67;;;13.60;;
38083;SDS011;23894;51.466;7.444;2023-04-07T09:02:24;14.73;;;12.25;;
38083;SDS011;23894;51.466;7.444;2023-04-07T09:04:25;13.57;;;11.23;;
38083;SDS011;23894;51.466;7.444;2023-04-07T09:06:26;17.70;;;14.95;;
38083;SDS011;23894;51.466;7.444;2023-04-07T09:08:30;16.30;;;13.27;;
38083;SDS011;23894;51.466;7.444;2023-04-07T09:10:31;15.70;;;13.90;;
38083;SDS011;23894;51.466;7.444;2023-04-07T09:12:32;18.17;;;14.73;;
38083;SDS011;23894;51.466;7.444;2023-04-07T09:14:34;17.08;;;14.82;;
38083;SDS011;23894;51.466;7.444;2023-04-07T09:16:35;17.02;;;14.30;;
38083;SDS011;23894;51.466;7.444;2023-04-07T09:18:36;17.30;;;14.88;;
38083;SDS011;23894;51.466;7.444;2023-04-07T09:20:53;16.58;;;14.27;;
38083;SDS011;23894;51.466;7.444;2023-04-07T09:22:55;17.75;;;15.07;;
38083;SDS011;23894;51.466;7.444;2023-04-07T09:25:07;16.20;;;13.85;;
38083;SDS011;23894;51.466;7.444;2023-04-07T09:27:12;16.33;;;14.38;;
38083;SDS011;23894;51.466;7.444;2023-04-07T09:29:18;17.60;;;14.67;;
38083;SDS011;23894;51.466;7.444;2023-04-07T09:31:19;16.63;;;13.85;;
38083;SDS011;23894;51.466;7.444;2023-04-07T09:33:26;17.95;;;14.52;;
38083;SDS011;23894;51.466;7.444;2023-04-07T09:35:28;16.38;;;13.82;;
38083;SDS011;23894;51.466;7.444;2023-04-07T09:37:29;15.10;;;13.50;;
38083;SDS011;23894;51.466;7.444;2023-04-07T09:39:30;17.08;;;14.52;;
38083;SDS011;23894;51.466;7.444;2023-04-07T09:41:31;14.82;;;13.10;;
38083;SDS011;23894;51.466;7.444;2023-04-07T09:43:32;14.82;;;13.10;;
38083;SDS011;23894;51.466;7.444;2023-04-07T09:45:35;14.18;;;12.52;;
38083;SDS011;23894;51.466;7.444;2023-04-07T09:47:38;14.13;;;12.63;;
38083;SDS011;23894;51.466;7.444;2023-04-07T09:49:51;14.98;;;12.73;;
38083;SDS011;23894;51.466;7.444;2023-04-07T09:53:54;14.45;;;11.88;;
38083;SDS011;23894;51.466;7.444;2023-04-07T09:55:55;13.82;;;12.35;;
38083;SDS011;23894;51.466;7.444;2023-04-07T09:57:56;13.77;;;11.27;;
38083;SDS011;23894;51.466;7.444;2023-04-07T09:59:57;13.27;;;10.43;;
38083;SDS011;23894;51.466;7.444;2023-04-07T10:01:59;11.50;;;9.57;;
38083;SDS011;23894;51.466;7.444;2023-04-07T10:04:00;12.02;;;9.70;;
38083;SDS011;23894;51.466;7.444;2023-04-07T10:06:02;12.00;;;10.02;;
38083;SDS011;23894;51.466;7.444;2023-04-07T10:08:04;9.93;;;8.25;;
38083;SDS011;23894;51.466;7.444;2023-04-07T10:10:05;10.40;;;8.38;;
38083;SDS011;23894;51.466;7.444;2023-04-07T10:12:07;9.90;;;7.97;;
38083;SDS011;23894;51.466;7.444;2023-04-07T10:14:10;10.75;;;8.82;;
38083;SDS011;23894;51.466;7.444;2023-04-07T10:16:12;11.48;;;9.07;;
38083;SDS011;23894;51.466;7.444;2023-04-07T10:18:13;9.85;;;8.52;;
38083;SDS011;23894;51.466;7.444;2023-04-07T10:20:18;9.90;;;7.60;;
38083;SDS011;23894;51.466;7.444;2023-04-07T10:22:21;8.95;;;7.40;;
38083;SDS011;23894;51.466;7.444;2023-04-07T10:26:27;9.32;;;7.60;;
38083;SDS011;23894;51.466;7.444;2023-04-07T10:28:30;11.02;;;9.38;;
38083;SDS011;23894;51.466;7.444;2023-04-07T10:30:32;10.60;;;8.98;;
38083;SDS011;23894;51.466;7.444;2023-04-07T10:32:44;10.88;;;9.07;;
38083;SDS011;23894;51.466;7.444;2023-04-07T10:37:11;11.77;;;8.98;;
38083;SDS011;23894;51.466;7.444;2023-04-07T10:41:30;11.32;;;9.75;;
38083;SDS011;23894;51.466;7.444;2023-04-07T10:43:36;10.98;;;9.68;;
38083;SDS011;23894;51.466;7.444;2023-04-07T10:50:13;11.55;;;9.82;;
38083;SDS011;23894;51.466;7.444;2023-04-07T10:52:22;11.38;;;10.00;;
38083;SDS011;23894;51.466;7.444;2023-04-07T10:54:23;11.32;;;9.63;;
38083;SDS011;23894;51.466;7.444;2023-04-07T10:56:35;11.85;;;10.43;;
38083;SDS011;23894;51.466;7.444;2023-04-07T10:58:47;12.25;;;10.95;;
38083;SDS011;23894;51.466;7.444;2023-04-07T11:03:17;11.65;;;10.23;;
38083;SDS011;23894;51.466;7.444;2023-04-07T11:05:19;11.30;;;10.10;;
38083;SDS011;23894;51.466;7.444;2023-04-07T11:07:22;11.90;;;10.45;;
38083;SDS011;23894;51.466;7.444;2023-04-07T11:09:41;11.98;;;10.40;;
38083;SDS011;23894;51.466;7.444;2023-04-07T11:11:43;12.32;;;10.90;;
38083;SDS011;23894;51.466;7.444;2023-04-07T11:13:54;11.35;;;10.15;;
38083;SDS011;23894;51.466;7.444;2023-04-07T11:15:55;12.13;;;10.23;;
38083;SDS011;23894;51.466;7.444;2023-04-07T11:18:12;11.45;;;10.25;;
38083;SDS011;23894;51.466;7.444;2023-04-07T11:20:14;13.85;;;12.40;;
38083;SDS011;23894;51.466;7.444;2023-04-07T11:22:16;14.80;;;13.17;;
38083;SDS011;23894;51.466;7.444;2023-04-07T11:24:32;15.07;;;13.48;;
38083;SDS011;23894;51.466;7.444;2023-04-07T11:26:37;16.13;;;14.45;;
38083;SDS011;23894;51.466;7.444;2023-04-07T11:28:44;16.40;;;14.50;;
38083;SDS011;23894;51.466;7.444;2023-04-07T11:30:50;16.52;;;14.73;;
38083;SDS011;23894;51.466;7.444;2023-04-07T11:32:51;15.32;;;12.88;;
38083;SDS011;23894;51.466;7.444;2023-04-07T11:34:52;15.83;;;13.53;;
38083;SDS011;23894;51.466;7.444;2023-04-07T11:36:53;18.73;;;15.25;;
38083;SDS011;23894;51.466;7.444;2023-04-07T11:38:58;16.52;;;14.20;;
38083;SDS011;23894;51.466;7.444;2023-04-07T11:41:08;15.85;;;14.07;;
38083;SDS011;23894;51.466;7.444;2023-04-07T11:43:18;18.40;;;15.00;;
38083;SDS011;23894;51.466;7.444;2023-04-07T11:45:19;18.00;;;14.90;;
38083;SDS011;23894;51.466;7.444;2023-04-07T11:47:21;17.55;;;15.23;;
38083;SDS011;23894;51.466;7.444;2023-04-07T11:49:33;18.38;;;15.50;;
38083;SDS011;23894;51.466;7.444;2023-04-07T11:51:37;17.80;;;14.85;;
38083;SDS011;23894;51.466;7.444;2023-04-07T11:53:38;14.75;;;12.88;;
38083;SDS011;23894;51.466;7.444;2023-04-07T11:55:40;14.85;;;13.13;;
38083;SDS011;23894;51.466;7.444;2023-04-07T11:57:41;14.33;;;12.47;;
38083;SDS011;23894;51.466;7.444;2023-04-07T11:59:42;13.75;;;11.88;;
38083;SDS011;23894;51.466;7.444;2023-04-07T12:01:43;12.35;;;10.95;;
38083;SDS011;23894;51.466;7.444;2023-04-07T12:03:54;12.27;;;10.93;;
38083;SDS011;23894;51.466;7.444;2023-04-07T12:05:58;14.25;;;12.07;;
38083;SDS011;23894;51.466;7.444;2023-04-07T12:07:59;12.68;;;11.30;;
38083;SDS011;23894;51.466;7.444;2023-04-07T12:10:16;12.98;;;11.68;;
38083;SDS011;23894;51.466;7.444;2023-04-07T12:12:24;11.85;;;10.63;;
38083;SDS011;23894;51.466;7.444;2023-04-07T12:14:26;11.63;;;10.45;;
38083;SDS011;23894;51.466;7.444;2023-04-07T12:16:27;12.07;;;10.50;;
38083;SDS011;23894;51.466;7.444;2023-04-07T12:18:28;12.90;;;11.50;;
38083;SDS011;23894;51.466;7.444;2023-04-07T12:20:29;14.15;;;12.65;;